createdAt,value
2022-08-18T00:00:20.426Z,97485.72
2022-08-18T00:03:00.526Z,97481.41
2022-08-18T00:05:28.086Z,97473.63
2022-08-18T00:07:57.042Z,97484.72
2022-08-18T00:10:23.347Z,97488.78
2022-08-18T00:12:49.875Z,97491.22
2022-08-18T00:15:16.370Z,97495.63
2022-08-18T00:17:42.793Z,97489.22
2022-08-18T00:20:09.126Z,97495.69
2022-08-18T00:22:35.881Z,97488.19
2022-08-18T00:25:02.160Z,97496.56
2022-08-18T00:27:29.084Z,97497.97
2022-08-18T00:29:55.471Z,97499.63
2022-08-18T00:32:21.781Z,97504.50
2022-08-18T00:34:48.223Z,97506.69
2022-08-18T00:37:14.552Z,97508.56
2022-08-18T00:39:47.858Z,97500.50
2022-08-18T00:42:27.681Z,97506.69
2022-08-18T00:44:57.308Z,97502.41
2022-08-18T00:47:32.964Z,97500.78
2022-08-18T00:50:12.493Z,97504.28
2022-08-18T00:52:41.967Z,97503.47
2022-08-18T00:55:08.368Z,97506.47
2022-08-18T00:57:35.083Z,97507.88
2022-08-18T01:00:01.620Z,97504.66
2022-08-18T01:02:28.043Z,97499.84
2022-08-18T01:04:54.568Z,97504.75
2022-08-18T01:07:21.035Z,97513.09
2022-08-18T01:09:47.551Z,97516.38
2022-08-18T01:12:44.401Z,97522.34
2022-08-18T01:15:00.257Z,97519.72
2022-08-18T01:17:27.032Z,97514.94
2022-08-18T01:19:53.421Z,97507.69
2022-08-18T01:22:19.714Z,97509.88
2022-08-18T01:24:46.328Z,97517.44
2022-08-18T01:27:12.630Z,97519.13
2022-08-18T01:29:42.924Z,97513.19
2022-08-18T01:32:12.983Z,97521.56
2022-08-18T01:34:39.272Z,97518.34
2022-08-18T01:37:05.940Z,97520.22
2022-08-18T01:41:25.077Z,97522.41
2022-08-18T01:42:18.907Z,97514.91
2022-08-18T01:44:45.387Z,97519.50
2022-08-18T01:47:11.901Z,97518.19
2022-08-18T01:49:38.347Z,97512.28
2022-08-18T01:52:04.692Z,97513.66
2022-08-18T01:54:31.095Z,97517.44
2022-08-18T01:56:57.593Z,97515.34
2022-08-18T01:59:23.904Z,97508.63
2022-08-18T02:01:53.455Z,97511.91
2022-08-18T02:04:37.103Z,97518.13
2022-08-18T02:07:04.268Z,97521.13
2022-08-18T02:09:30.827Z,97517.91
2022-08-18T02:11:57.304Z,97516.31
2022-08-18T02:14:25.006Z,97517.13
2022-08-18T02:16:53.439Z,97518.47
2022-08-18T02:19:26.004Z,97510.69
2022-08-18T02:21:52.352Z,97517.19
2022-08-18T02:24:18.739Z,97518.25
2022-08-18T02:26:45.049Z,97520.72
2022-08-18T02:29:11.368Z,97521.28
2022-08-18T02:31:37.635Z,97525.63
2022-08-18T02:34:04.047Z,97515.97
2022-08-18T02:36:30.331Z,97520.03
2022-08-18T02:39:00.713Z,97509.31
2022-08-18T02:41:26.995Z,97505.34
2022-08-18T02:43:56.113Z,97514.47
2022-08-18T02:46:29.324Z,97512.88
2022-08-18T02:48:57.045Z,97516.13
2022-08-18T02:51:23.387Z,97516.13
2022-08-18T02:53:52.516Z,97525.06
2022-08-18T02:56:20.037Z,97531.31
2022-08-18T02:59:06.390Z,97531.06
2022-08-18T03:01:32.718Z,97531.31
2022-08-18T03:03:59.092Z,97530.03
2022-08-18T03:06:25.380Z,97526.53
2022-08-18T03:08:51.873Z,97522.25
2022-08-18T03:11:18.165Z,97521.72
2022-08-18T03:13:44.967Z,97520.38
2022-08-18T03:16:11.273Z,97520.16
2022-08-18T03:18:37.937Z,97528.78
2022-08-18T03:21:04.383Z,97524.78
2022-08-18T03:23:34.200Z,97530.41
2022-08-18T03:26:00.500Z,97533.69
2022-08-18T03:28:26.831Z,97538.53
2022-08-18T03:30:53.669Z,97539.09
2022-08-18T03:33:20.157Z,97540.19
2022-08-18T03:35:46.997Z,97546.63
2022-08-18T03:38:13.329Z,97539.66
2022-08-18T03:40:39.800Z,97535.34
2022-08-18T03:43:06.065Z,97532.38
2022-08-18T03:45:52.354Z,97536.97
2022-08-18T03:48:18.781Z,97541.53
2022-08-18T03:50:45.300Z,97539.13
2022-08-18T03:53:11.837Z,97545.59
2022-08-18T03:55:38.193Z,97543.47
2022-08-18T03:58:05.327Z,97537.84
2022-08-18T04:00:31.853Z,97535.72
2022-08-18T04:02:58.776Z,97529.03
2022-08-18T04:05:25.246Z,97532.81
2022-08-18T04:07:51.683Z,97525.84
2022-08-18T04:10:19.460Z,97526.91
2022-08-18T04:12:46.196Z,97532.84
2022-08-18T04:15:12.526Z,97533.91
2022-08-18T04:18:03.014Z,97534.47
2022-08-18T04:20:25.440Z,97543.63
2022-08-18T04:22:52.077Z,97545.75
2022-08-18T04:25:18.386Z,97553.28
2022-08-18T04:27:44.752Z,97550.88
2022-08-18T04:30:11.079Z,97554.38
2022-08-18T04:32:38.039Z,97562.66
2022-08-18T04:35:04.789Z,97557.59
2022-08-18T04:37:31.863Z,97543.88
2022-08-18T04:39:59.594Z,97538.50
2022-08-18T04:42:25.911Z,97539.31
2022-08-18T04:44:52.207Z,97542.00
2022-08-18T04:47:18.567Z,97550.06
2022-08-18T04:49:44.874Z,97559.22
2022-08-18T04:52:34.067Z,97556.00
2022-08-18T04:54:57.513Z,97551.97
2022-08-18T04:57:23.883Z,97566.22
2022-08-18T04:59:50.178Z,97565.13
2022-08-18T05:02:16.939Z,97565.13
2022-08-18T05:04:43.234Z,97570.47
2022-08-18T05:07:09.617Z,97571.00
2022-08-18T05:09:41.357Z,97572.63
2022-08-18T05:12:07.963Z,97565.09
2022-08-18T05:14:34.331Z,97569.38
2022-08-18T05:17:00.658Z,97577.16
2022-08-18T05:19:26.960Z,97575.03
2022-08-18T05:21:53.456Z,97571.53
2022-08-18T05:24:29.617Z,97574.75
2022-08-18T05:26:59.985Z,97574.19
2022-08-18T05:29:26.384Z,97573.13
2022-08-18T05:31:56.864Z,97580.91
2022-08-18T05:34:23.221Z,97573.66
2022-08-18T05:36:49.595Z,97577.94
2022-08-18T05:39:15.990Z,97568.81
2022-08-18T05:41:42.579Z,97570.41
2022-08-18T05:44:09.004Z,97572.81
2022-08-18T05:46:35.431Z,97567.44
2022-08-18T05:49:02.088Z,97574.44
2022-08-18T05:51:28.534Z,97569.56
2022-08-18T05:53:54.834Z,97570.38
2022-08-18T05:56:21.132Z,97563.91
2022-08-18T05:58:47.412Z,97562.84
2022-08-18T06:01:13.682Z,97566.34
2022-08-18T06:03:45.175Z,97564.13
2022-08-18T06:06:13.201Z,97576.50
2022-08-18T06:08:40.929Z,97565.47
2022-08-18T06:11:07.747Z,97567.06
2022-08-18T06:13:49.591Z,97569.50
2022-08-18T06:16:18.964Z,97565.97
2022-08-18T06:18:45.547Z,97573.94
2022-08-18T06:21:11.911Z,97577.63
2022-08-18T06:23:38.329Z,97592.06
2022-08-18T06:26:04.668Z,97590.94
2022-08-18T06:28:31.220Z,97581.53
2022-08-18T06:30:57.649Z,97587.66
2022-08-18T06:33:24.471Z,97585.53
2022-08-18T06:35:51.013Z,97591.13
2022-08-18T06:38:18.761Z,97598.63
2022-08-18T06:40:45.678Z,97608.25
2022-08-18T06:43:12.067Z,97610.38
2022-08-18T06:45:40.143Z,97605.53
2022-08-18T06:48:15.254Z,97617.31
2022-08-18T06:50:43.622Z,97611.09
2022-08-18T06:53:26.895Z,97623.16
2022-08-18T06:55:54.730Z,97626.09
2022-08-18T06:58:21.911Z,97630.09
2022-08-18T07:00:49.251Z,97645.66
2022-08-18T07:03:15.740Z,97637.31
2022-08-18T07:05:42.593Z,97636.97
2022-08-18T07:08:08.913Z,97642.59
2022-08-18T07:10:35.178Z,97648.78
2022-08-18T07:13:02.211Z,97652.81
2022-08-18T07:15:28.939Z,97652.47
2022-08-18T07:17:55.482Z,97647.53
2022-08-18T07:20:21.978Z,97654.72
2022-08-18T07:22:48.353Z,97651.13
2022-08-18T07:25:17.513Z,97646.50
2022-08-18T07:27:43.846Z,97649.41
2022-08-18T07:30:15.741Z,97641.78
2022-08-18T07:32:42.378Z,97645.94
2022-08-18T07:35:08.946Z,97637.31
2022-08-18T07:37:35.233Z,97638.38
2022-08-18T07:40:01.954Z,97631.69
2022-08-18T07:42:37.171Z,97637.59
2022-08-18T07:45:14.841Z,97649.59
2022-08-18T07:47:43.012Z,97643.34
2022-08-18T07:50:26.971Z,97641.88
2022-08-18T07:52:56.080Z,97648.31
2022-08-18T07:55:22.492Z,97647.75
2022-08-18T07:57:48.788Z,97647.19
2022-08-18T08:00:18.772Z,97645.78
2022-08-18T08:02:54.017Z,97652.22
2022-08-18T08:05:21.921Z,97655.34
2022-08-18T08:07:48.199Z,97654.31
2022-08-18T08:10:15.241Z,97652.72
2022-08-18T08:12:41.526Z,97645.13
2022-08-18T08:15:07.870Z,97653.72
2022-08-18T08:17:34.352Z,97656.09
2022-08-18T08:20:02.049Z,97661.97
2022-08-18T08:22:28.965Z,97656.44
2022-08-18T08:24:56.239Z,97671.00
2022-08-18T08:27:23.323Z,97661.22
2022-08-18T08:29:49.975Z,97666.03
2022-08-18T08:32:16.378Z,97665.53
2022-08-18T08:34:42.778Z,97669.31
2022-08-18T08:37:09.292Z,97666.91
2022-08-18T08:39:36.949Z,97666.31
2022-08-18T08:42:30.263Z,97666.41
2022-08-18T08:44:59.081Z,97660.50
2022-08-18T08:47:26.471Z,97668.00
2022-08-18T08:49:59.032Z,97672.28
2022-08-18T08:52:27.863Z,97676.53
2022-08-18T08:54:55.945Z,97686.72
2022-08-18T08:57:22.865Z,97688.56
2022-08-18T08:59:49.161Z,97687.44
2022-08-18T09:02:37.908Z,97700.69
2022-08-18T09:05:08.044Z,97690.69
2022-08-18T09:07:38.537Z,97695.22
2022-08-18T09:10:05.073Z,97699.81
2022-08-18T09:12:32.361Z,97699.81
2022-08-18T09:14:59.201Z,97706.50
2022-08-18T09:17:30.037Z,97708.63
2022-08-18T09:20:00.700Z,97713.41
2022-08-18T09:22:27.618Z,97715.00
2022-08-18T09:24:55.520Z,97716.13
2022-08-18T09:27:22.376Z,97714.53
2022-08-18T09:29:48.962Z,97711.03
2022-08-18T09:32:15.716Z,97709.41
2022-08-18T09:34:45.543Z,97716.41
2022-08-18T09:37:12.033Z,97728.81
2022-08-18T09:39:38.524Z,97715.31
2022-08-18T09:42:04.862Z,97712.81
2022-08-18T09:44:31.560Z,97716.22
2022-08-18T09:46:57.950Z,97721.53
2022-08-18T09:49:24.306Z,97725.84
2022-08-18T09:51:53.185Z,97735.03
2022-08-18T09:54:20.864Z,97729.13
2022-08-18T09:56:54.460Z,97732.34
2022-08-18T09:59:22.112Z,97732.53
2022-08-18T10:01:52.626Z,97724.69
2022-08-18T10:04:21.696Z,97729.47
2022-08-18T10:07:05.395Z,97730.28
2022-08-18T10:09:36.675Z,97742.50
2022-08-18T10:12:18.877Z,97735.47
2022-08-18T10:14:45.236Z,97736.91
2022-08-18T10:17:23.715Z,97735.56
2022-08-18T10:22:37.184Z,97724.25
2022-08-18T10:25:22.085Z,97727.75
2022-08-18T10:27:49.466Z,97716.44
2022-08-18T10:30:15.846Z,97715.41
2022-08-18T10:32:44.179Z,97710.94
2022-08-18T10:35:11.086Z,97697.72
2022-08-18T10:37:37.393Z,97694.44
2022-08-18T10:40:03.896Z,97695.75
2022-08-18T10:45:22.113Z,97698.34
2022-08-18T10:47:51.678Z,97691.06
2022-08-18T10:50:18.030Z,97681.84
2022-08-18T10:52:47.216Z,97680.47
2022-08-18T10:55:17.947Z,97674.78
2022-08-18T10:57:44.301Z,97667.16
2022-08-18T11:00:11.966Z,97659.88
2022-08-18T11:02:39.013Z,97659.25
2022-08-18T11:05:05.349Z,97658.38
2022-08-18T11:07:34.774Z,97651.56
2022-08-18T11:12:47.585Z,97654.47
2022-08-18T11:15:23.439Z,97656.09
2022-08-18T11:17:50.151Z,97653.09
2022-08-18T11:20:18.152Z,97641.16
2022-08-18T11:22:44.603Z,97633.88
2022-08-18T11:25:13.292Z,97631.69
2022-08-18T11:27:39.879Z,97620.25
2022-08-18T11:30:07.097Z,97616.47
2022-08-18T11:32:34.752Z,97616.16
2022-08-18T11:35:01.273Z,97623.16
2022-08-18T11:37:27.555Z,97620.47
2022-08-18T11:39:54.046Z,97609.03
2022-08-18T11:42:25.064Z,97605.25
2022-08-18T11:44:51.609Z,97598.72
2022-08-18T11:47:19.096Z,97590.31
2022-08-18T11:49:50.081Z,97594.34
2022-08-18T11:52:30.810Z,97608.34
2022-08-18T11:55:00.544Z,97602.63
2022-08-18T11:57:27.261Z,97615.84
2022-08-18T12:00:00.946Z,97615.53
2022-08-18T12:02:27.443Z,97608.53
2022-08-18T12:04:56.801Z,97612.31
2022-08-18T12:07:23.389Z,97614.75
2022-08-18T12:12:36.085Z,97621.13
2022-08-18T12:15:11.902Z,97622.25
2022-08-18T12:17:43.360Z,97626.53
2022-08-18T12:20:18.979Z,97622.75
2022-08-18T12:22:45.804Z,97615.41
2022-08-18T12:25:12.425Z,97607.81
2022-08-18T12:27:38.685Z,97600.50
2022-08-18T12:30:05.105Z,97604.03
2022-08-18T12:32:46.769Z,97605.63
2022-08-18T12:35:16.840Z,97592.91
2022-08-18T12:38:12.848Z,97589.09
2022-08-18T12:40:35.456Z,97594.81
2022-08-18T12:43:02.032Z,97612.44
2022-08-18T12:45:29.025Z,97613.03
2022-08-18T12:47:55.361Z,97606.03
2022-08-18T12:50:31.834Z,97607.63
2022-08-18T12:53:01.411Z,97613.03
2022-08-18T12:55:29.083Z,97598.44
2022-08-18T12:57:56.102Z,97607.63
2022-08-18T13:00:29.090Z,97599.50
2022-08-18T13:02:56.429Z,97596.22
2022-08-18T13:05:27.468Z,97598.00
2022-08-18T13:07:54.405Z,97598.50
2022-08-18T13:10:35.583Z,97599.31
2022-08-18T13:13:07.631Z,97590.41
2022-08-18T13:15:35.904Z,97593.59
2022-08-18T13:18:02.418Z,97593.59
2022-08-18T13:20:28.970Z,97590.69
2022-08-18T13:22:56.021Z,97594.50
2022-08-18T13:25:32.306Z,97587.00
2022-08-18T13:28:05.320Z,97585.09
2022-08-18T13:30:32.854Z,97588.59
2022-08-18T13:33:02.720Z,97577.00
2022-08-18T13:35:38.431Z,97569.97
2022-08-18T13:38:18.852Z,97564.88
2022-08-18T13:40:47.945Z,97560.91
2022-08-18T13:43:14.660Z,97561.19
2022-08-18T13:45:41.413Z,97558.00
2022-08-18T13:48:08.427Z,97555.59
2022-08-18T13:50:35.231Z,97550.19
2022-08-18T13:53:02.062Z,97547.47
2022-08-18T13:55:28.463Z,97549.41
2022-08-18T13:57:56.527Z,97542.38
2022-08-18T14:00:29.714Z,97545.09
2022-08-18T14:02:56.812Z,97536.19
2022-08-18T14:05:50.828Z,97529.19
2022-08-18T14:08:09.452Z,97525.97
2022-08-18T14:10:36.368Z,97533.31
2022-08-18T14:13:20.015Z,97524.41
2022-08-18T14:15:53.552Z,97518.19
2022-08-18T14:18:28.908Z,97518.19
2022-08-18T14:20:57.255Z,97517.38
2022-08-18T14:23:27.923Z,97515.47
2022-08-18T14:26:00.143Z,97504.66
2022-08-18T14:28:26.681Z,97505.78
2022-08-18T14:30:54.614Z,97502.78
2022-08-18T14:33:21.392Z,97506.75
2022-08-18T14:36:06.226Z,97505.88
2022-08-18T14:38:36.102Z,97503.34
2022-08-18T14:41:02.399Z,97503.84
2022-08-18T14:43:29.041Z,97500.53
2022-08-18T14:46:15.606Z,97506.13
2022-08-18T14:48:42.494Z,97499.00
2022-08-18T14:51:09.516Z,97502.97
2022-08-18T14:53:37.022Z,97507.28
2022-08-18T14:56:03.948Z,97502.38
2022-08-18T14:58:30.509Z,97503.47
2022-08-18T15:00:56.838Z,97495.91
2022-08-18T15:03:31.213Z,97502.09
2022-08-18T15:05:57.950Z,97501.31
2022-08-18T15:08:25.635Z,97505.59
2022-08-18T15:10:53.143Z,97510.69
2022-08-18T15:13:20.010Z,97508.78
2022-08-18T15:15:51.875Z,97507.69
2022-08-18T15:18:22.645Z,97509.28
2022-08-18T15:20:49.383Z,97505.47
2022-08-18T15:23:15.807Z,97502.47
2022-08-18T15:25:42.287Z,97497.06
2022-08-18T15:28:16.379Z,97494.06
2022-08-18T15:30:42.930Z,97494.84
2022-08-18T15:33:09.453Z,97495.63
2022-08-18T15:35:44.170Z,97488.03
2022-08-18T15:38:10.741Z,97489.63
2022-08-18T15:40:41.587Z,97485.00
2022-08-18T15:43:10.615Z,97496.63
2022-08-18T15:45:37.012Z,97483.91
2022-08-18T15:48:09.834Z,97489.00
2022-08-18T15:50:39.184Z,97497.13
2022-08-18T15:53:09.203Z,97495.19
2022-08-18T15:55:37.490Z,97489.78
2022-08-18T15:58:04.025Z,97486.00
2022-08-18T16:00:37.568Z,97495.19
2022-08-18T16:03:04.659Z,97495.19
2022-08-18T16:05:35.379Z,97488.53
2022-08-18T16:08:01.978Z,97493.94
2022-08-18T16:10:28.291Z,97497.72
2022-08-18T16:12:54.796Z,97494.25
2022-08-18T16:15:21.460Z,97492.31
2022-08-18T16:17:48.123Z,97488.84
2022-08-18T16:20:14.442Z,97493.44
2022-08-18T16:22:41.019Z,97501.53
2022-08-18T16:25:07.338Z,97493.75
2022-08-18T16:27:33.771Z,97504.56
2022-08-18T16:30:00.062Z,97504.56
2022-08-18T16:32:26.687Z,97496.44
2022-08-18T16:34:52.990Z,97489.44
2022-08-18T16:37:19.442Z,97489.44
2022-08-18T16:39:45.915Z,97488.66
2022-08-18T16:42:12.286Z,97492.13
2022-08-18T16:44:38.571Z,97481.63
2022-08-18T16:47:04.935Z,97482.44
2022-08-18T16:49:31.255Z,97487.03
2022-08-18T16:51:57.547Z,97484.34
2022-08-18T16:54:23.951Z,97483.56
2022-08-18T16:56:50.468Z,97486.25
2022-08-18T16:59:16.765Z,97480.03
2022-08-18T17:01:48.599Z,97473.34
2022-08-18T17:04:20.855Z,97478.75
2022-08-18T17:06:48.083Z,97475.25
2022-08-18T17:09:14.511Z,97470.13
2022-08-18T17:11:48.003Z,97466.66
2022-08-18T17:14:17.833Z,97466.97
2022-08-18T17:16:45.966Z,97463.47
2022-08-18T17:19:12.318Z,97461.84
2022-08-18T17:21:39.011Z,97461.06
2022-08-18T17:24:05.434Z,97460.22
2022-08-18T17:26:32.213Z,97460.53
2022-08-18T17:28:58.543Z,97468.97
2022-08-18T17:31:24.925Z,97469.75
2022-08-18T17:33:51.291Z,97463.56
2022-08-18T17:36:17.600Z,97459.25
2022-08-18T17:38:43.906Z,97460.34
2022-08-18T17:41:10.275Z,97456.84
2022-08-18T17:43:36.703Z,97463.38
2022-08-18T17:46:03.027Z,97454.47
2022-08-18T17:48:29.324Z,97452.06
2022-08-18T17:50:55.638Z,97453.97
2022-08-18T17:53:21.950Z,97455.06
2022-08-18T17:55:48.253Z,97444.28
2022-08-18T17:58:14.619Z,97446.47
2022-08-18T18:00:41.102Z,97453.00
2022-08-18T18:03:09.046Z,97455.97
2022-08-18T18:05:37.947Z,97447.09
2022-08-18T18:08:04.302Z,97452.00
2022-08-18T18:10:30.703Z,97464.72
2022-08-18T18:12:57.000Z,97463.13
2022-08-18T18:15:27.800Z,97458.81
2022-08-18T18:17:54.652Z,97452.13
2022-08-18T18:20:21.074Z,97461.31
2022-08-18T18:22:47.387Z,97452.72
2022-08-18T18:25:15.772Z,97461.13
2022-08-18T18:27:42.146Z,97453.34
2022-08-18T18:30:08.551Z,97459.06
2022-08-18T18:32:34.834Z,97448.56
2022-08-18T18:35:01.103Z,97449.94
2022-08-18T18:37:27.398Z,97463.78
2022-08-18T18:39:53.828Z,97454.09
2022-08-18T18:42:20.299Z,97467.59
2022-08-18T18:44:46.834Z,97472.50
2022-08-18T18:47:13.199Z,97461.19
2022-08-18T18:49:39.535Z,97472.31
2022-08-18T18:52:05.978Z,97469.91
2022-08-18T18:54:32.265Z,97470.22
2022-08-18T18:56:58.690Z,97467.03
2022-08-18T18:59:25.024Z,97476.50
2022-08-18T19:01:51.499Z,97476.50
2022-08-18T19:04:17.876Z,97476.00
2022-08-18T19:06:44.202Z,97479.84
2022-08-18T19:09:10.563Z,97469.34
2022-08-18T19:11:36.852Z,97478.84
2022-08-18T19:14:03.323Z,97479.94
2022-08-18T19:16:33.727Z,97471.34
2022-08-18T19:19:38.109Z,97482.47
2022-08-18T19:22:03.728Z,97480.06
2022-08-18T19:24:32.455Z,97482.22
2022-08-18T19:26:59.047Z,97481.72
2022-08-18T19:29:25.366Z,97477.44
2022-08-18T19:31:51.654Z,97478.03
2022-08-18T19:34:18.265Z,97479.44
2022-08-18T19:36:44.544Z,97477.84
2022-08-18T19:39:11.122Z,97472.75
2022-08-18T19:41:39.349Z,97474.94
2022-08-18T19:44:05.846Z,97478.25
2022-08-18T19:46:32.132Z,97481.56
2022-08-18T19:49:01.564Z,97482.16
2022-08-18T19:51:28.085Z,97479.28
2022-08-18T19:53:58.681Z,97481.78
2022-08-18T19:56:25.046Z,97484.28
2022-08-18T19:59:15.774Z,97494.88
2022-08-18T20:01:45.834Z,97487.66
2022-08-18T20:04:12.520Z,97490.66
2022-08-18T20:06:38.786Z,97481.75
2022-08-18T20:09:08.915Z,97486.38
2022-08-18T20:11:42.543Z,97484.25
2022-08-18T20:14:13.953Z,97488.69
2022-08-18T20:16:44.029Z,97494.94
2022-08-18T20:19:16.339Z,97500.44
2022-08-18T20:21:42.962Z,97501.34
2022-08-18T20:24:09.401Z,97500.31
2022-08-18T20:26:35.914Z,97502.81
2022-08-18T20:29:02.891Z,97503.41
2022-08-18T20:31:30.067Z,97505.28
2022-08-18T20:33:56.678Z,97502.09
2022-08-18T20:36:23.036Z,97499.69
2022-08-18T20:38:49.321Z,97503.81
2022-08-18T20:41:23.504Z,97506.56
2022-08-18T20:43:50.251Z,97505.59
2022-08-18T20:46:16.830Z,97509.97
2022-08-18T20:48:43.439Z,97497.88
2022-08-18T20:51:09.794Z,97499.78
2022-08-18T20:53:36.776Z,97490.06
2022-08-18T20:56:12.844Z,97486.09
2022-08-18T20:58:51.573Z,97482.06
2022-08-18T21:01:18.251Z,97490.75
2022-08-18T21:03:44.697Z,97487.56
2022-08-18T21:06:11.600Z,97488.16
2022-08-18T21:08:38.517Z,97493.84
2022-08-18T21:11:04.921Z,97486.84
2022-08-18T21:13:31.338Z,97486.84
2022-08-18T21:15:57.839Z,97477.47
2022-08-18T21:18:24.406Z,97476.97
2022-08-18T21:20:51.274Z,97465.84
2022-08-18T21:23:17.968Z,97472.72
2022-08-18T21:25:45.035Z,97478.72
2022-08-18T21:28:11.479Z,97471.75
2022-08-18T21:30:41.002Z,97465.03
2022-08-18T21:33:08.272Z,97463.97
2022-08-18T21:35:34.816Z,97454.63
2022-08-18T21:38:01.473Z,97460.31
2022-08-18T21:40:30.073Z,97473.25
2022-08-18T21:42:56.601Z,97473.03
2022-08-18T21:45:22.954Z,97479.03
2022-08-18T21:47:49.496Z,97484.97
2022-08-18T21:50:15.836Z,97482.06
2022-08-18T21:52:42.095Z,97487.75
2022-08-18T21:55:08.422Z,97489.16
2022-08-18T21:57:34.826Z,97492.16
2022-08-18T22:00:01.278Z,97488.13
2022-08-18T22:02:27.597Z,97502.50
2022-08-18T22:04:54.084Z,97501.47
2022-08-18T22:07:35.331Z,97507.44
2022-08-18T22:10:02.833Z,97513.38
2022-08-18T22:12:31.932Z,97520.47
2022-08-18T22:14:58.216Z,97531.53
2022-08-18T22:17:24.560Z,97529.38
2022-08-18T22:19:51.062Z,97532.66
2022-08-18T22:22:17.677Z,97527.56
2022-08-18T22:24:44.243Z,97520.88
2022-08-18T22:27:10.691Z,97533.31
2022-08-18T22:29:37.034Z,97533.59
2022-08-18T22:32:12.196Z,97534.16
2022-08-18T22:34:38.584Z,97545.50
2022-08-18T22:37:04.985Z,97550.34
2022-08-18T22:39:31.290Z,97550.94
2022-08-18T22:41:57.592Z,97569.25
2022-08-18T22:44:23.891Z,97574.13
2022-08-18T22:46:50.204Z,97570.91
2022-08-18T22:49:16.493Z,97576.88
2022-08-18T22:51:42.963Z,97583.34
2022-08-18T22:54:09.255Z,97582.53
2022-08-18T22:56:35.536Z,97573.66
2022-08-18T22:59:15.632Z,97576.34
2022-08-18T23:01:43.674Z,97573.66
2022-08-18T23:04:10.409Z,97571.25
2022-08-18T23:06:36.779Z,97575.06
2022-08-18T23:09:03.143Z,97574.25
2022-08-18T23:11:29.472Z,97572.63
2022-08-18T23:13:55.787Z,97575.31
2022-08-18T23:16:31.755Z,97568.34
2022-08-18T23:18:58.633Z,97558.69
2022-08-18T23:21:34.052Z,97565.66
2022-08-18T23:24:02.031Z,97560.28
2022-08-18T23:26:29.623Z,97553.78
2022-08-18T23:28:56.916Z,97548.94
2022-08-18T23:31:23.372Z,97536.56
2022-08-18T23:33:49.851Z,97547.34
2022-08-18T23:36:16.165Z,97527.41
2022-08-18T23:38:42.515Z,97520.44
2022-08-18T23:41:08.799Z,97516.13
2022-08-18T23:43:38.225Z,97516.94
2022-08-18T23:46:04.598Z,97515.34
2022-08-18T23:48:30.937Z,97519.91
2022-08-18T23:50:57.271Z,97523.41
2022-08-18T23:53:23.632Z,97517.88
2022-08-18T23:55:49.906Z,97531.78
2022-08-18T23:58:16.219Z,97544.13
